Time;durP1;ratioP1;P1;durP2;ratioP2;P2;SDS_P1;SDS_P2;PMS_P1;PMS_P2;Temp;Humidity;BMP_temperature;BMP_pressure;BME280_temperature;BME280_humidity;BME280_pressure;Samples;Min_cycle;Max_cycle;Signal;HPM_P1;HPM_P2
2024/01/12 00:01:14;;;;;;;7.00;3.22;;;2.70;99.90;;;;;;5056989;28;20081;-70
2024/01/12 00:03:40;;;;;;;7.65;3.60;;;2.60;99.90;;;;;;5057065;28;20025;-70
2024/01/12 00:06:06;;;;;;;8.27;3.90;;;2.70;99.90;;;;;;5056726;28;20095;-70
2024/01/12 00:08:32;;;;;;;7.97;3.45;;;2.60;99.90;;;;;;5055935;28;20166;-70
2024/01/12 00:10:58;;;;;;;9.52;3.92;;;2.60;99.90;;;;;;5056119;28;20028;-70
2024/01/12 00:13:24;;;;;;;9.90;3.95;;;2.70;99.90;;;;;;5056214;28;20029;-70
2024/01/12 00:15:50;;;;;;;10.52;3.30;;;2.70;99.90;;;;;;5056238;28;20025;-70
2024/01/12 00:18:16;;;;;;;5.95;3.03;;;2.70;99.90;;;;;;5056591;28;20017;-70
2024/01/12 00:20:43;;;;;;;6.40;3.40;;;2.70;99.90;;;;;;5055619;28;20097;-70
2024/01/12 00:23:12;;;;;;;6.32;3.53;;;2.60;99.90;;;;;;5055748;28;20029;-69
2024/01/12 00:25:37;;;;;;;5.90;3.05;;;2.60;99.90;;;;;;5056489;28;20025;-70
2024/01/12 00:28:03;;;;;;;6.82;3.30;;;2.60;99.90;;;;;;5056474;28;20119;-70
2024/01/12 00:30:29;;;;;;;7.97;4.07;;;2.60;99.90;;;;;;5055690;28;20021;-70
2024/01/12 00:32:54;;;;;;;6.15;3.13;;;2.60;99.90;;;;;;5056592;28;20079;-70
2024/01/12 00:35:20;;;;;;;6.22;3.25;;;2.60;99.90;;;;;;5056455;28;20032;-70
2024/01/12 00:37:48;;;;;;;7.28;3.42;;;2.60;99.90;;;;;;5055655;28;20021;-70
2024/01/12 00:40:14;;;;;;;7.55;3.70;;;2.60;99.90;;;;;;5055890;28;20042;-70
2024/01/12 00:42:39;;;;;;;6.85;3.20;;;2.70;99.90;;;;;;5055480;28;20025;-70
2024/01/12 00:45:05;;;;;;;5.95;2.53;;;2.60;99.90;;;;;;5055500;28;20074;-70
2024/01/12 00:47:31;;;;;;;5.20;2.67;;;2.80;99.90;;;;;;5055563;28;20025;-69
2024/01/12 00:49:57;;;;;;;5.90;3.10;;;2.70;99.90;;;;;;5055448;28;20032;-70
2024/01/12 00:52:22;;;;;;;7.30;2.85;;;2.80;99.90;;;;;;5056594;28;20025;-70
2024/01/12 00:54:48;;;;;;;7.05;2.92;;;2.80;99.90;;;;;;5055624;28;20107;-70
2024/01/12 00:57:13;;;;;;;7.35;3.17;;;2.80;99.90;;;;;;5056293;28;20033;-70
2024/01/12 00:59:39;;;;;;;5.93;2.85;;;2.80;99.90;;;;;;5055447;28;20027;-70
2024/01/12 01:02:04;;;;;;;6.65;2.40;;;2.70;99.90;;;;;;5055690;28;20013;-70
2024/01/12 01:04:30;;;;;;;7.90;3.50;;;2.80;99.90;;;;;;5056139;28;20017;-70
2024/01/12 01:06:55;;;;;;;4.22;2.30;;;2.80;99.90;;;;;;5056476;28;20027;-70
2024/01/12 01:09:21;;;;;;;5.75;2.90;;;2.70;99.90;;;;;;5055504;28;20021;-70
2024/01/12 01:11:46;;;;;;;7.20;3.30;;;2.80;99.90;;;;;;5057439;28;20104;-70
2024/01/12 01:14:12;;;;;;;5.97;2.85;;;2.80;99.90;;;;;;5059657;28;20021;-70
2024/01/12 01:16:37;;;;;;;4.50;2.70;;;2.70;99.90;;;;;;5059578;28;20033;-70
2024/01/12 01:19:03;;;;;;;4.43;2.75;;;2.70;99.90;;;;;;5058792;28;20017;-70
2024/01/12 01:21:29;;;;;;;6.28;2.97;;;2.70;99.90;;;;;;5058732;28;20017;-70
2024/01/12 01:23:55;;;;;;;7.00;3.28;;;2.80;99.90;;;;;;5059928;28;20052;-70
2024/01/12 01:26:21;;;;;;;5.45;2.50;;;2.70;99.90;;;;;;5060079;28;20017;-70
2024/01/12 01:28:47;;;;;;;4.38;2.50;;;2.70;99.90;;;;;;5058463;28;20124;-70
2024/01/12 01:31:12;;;;;;;4.97;2.63;;;2.80;99.90;;;;;;5059660;28;20029;-70
2024/01/12 01:33:38;;;;;;;4.57;2.55;;;2.90;99.90;;;;;;5059416;28;20036;-70
2024/01/12 01:36:03;;;;;;;3.20;2.35;;;2.90;99.90;;;;;;5059287;28;20061;-69
2024/01/12 01:38:29;;;;;;;5.13;2.50;;;2.90;99.90;;;;;;5059508;28;20060;-70
2024/01/12 01:40:54;;;;;;;3.80;1.95;;;2.90;99.90;;;;;;5059125;28;20029;-69
2024/01/12 01:43:21;;;;;;;10.32;2.60;;;2.90;99.90;;;;;;5058292;28;20093;-70
2024/01/12 01:45:47;;;;;;;2.65;1.70;;;3.00;99.90;;;;;;5059503;28;20112;-70
2024/01/12 01:48:13;;;;;;;2.95;1.88;;;3.10;99.90;;;;;;5058315;28;20052;-70
2024/01/12 01:50:39;;;;;;;3.78;2.17;;;3.00;99.90;;;;;;5058427;28;20055;-70
2024/01/12 01:53:05;;;;;;;4.53;2.17;;;3.10;99.90;;;;;;5058565;28;20029;-70
2024/01/12 01:55:32;;;;;;;2.03;1.60;;;3.20;99.90;;;;;;5058883;28;20112;-70
2024/01/12 01:57:59;;;;;;;2.83;1.80;;;3.10;99.90;;;;;;5058042;28;20025;-70
2024/01/12 02:00:26;;;;;;;4.28;1.85;;;3.10;99.90;;;;;;5059010;28;20029;-70
2024/01/12 02:02:52;;;;;;;3.05;1.75;;;3.10;99.90;;;;;;5057944;28;20070;-70
2024/01/12 02:05:18;;;;;;;2.80;1.60;;;3.10;99.90;;;;;;5058177;28;20025;-70
2024/01/12 02:07:44;;;;;;;6.07;1.75;;;3.20;99.90;;;;;;5057924;28;20029;-69
2024/01/12 02:10:09;;;;;;;4.78;2.05;;;3.20;99.90;;;;;;5058615;28;20023;-70
2024/01/12 02:12:39;;;;;;;2.90;1.60;;;3.20;99.90;;;;;;5057736;28;20032;-70
2024/01/12 02:15:08;;;;;;;4.45;2.13;;;3.20;99.90;;;;;;5058576;28;20032;-70
2024/01/12 02:17:35;;;;;;;4.32;1.95;;;3.20;99.90;;;;;;5058645;28;20025;-70
2024/01/12 02:20:00;;;;;;;3.95;2.30;;;3.10;99.90;;;;;;5058433;28;20081;-70
2024/01/12 02:22:27;;;;;;;3.17;1.92;;;3.10;99.90;;;;;;5058024;28;20108;-70
2024/01/12 02:24:53;;;;;;;2.95;2.17;;;3.00;99.90;;;;;;5058545;28;20067;-70
2024/01/12 02:27:19;;;;;;;3.67;2.33;;;3.10;99.90;;;;;;5058248;28;20021;-70
2024/01/12 02:29:45;;;;;;;4.35;2.10;;;3.10;99.90;;;;;;5058375;28;20049;-70
2024/01/12 02:32:11;;;;;;;3.60;2.42;;;3.10;99.90;;;;;;5058104;28;20029;-70
2024/01/12 02:34:37;;;;;;;2.92;2.00;;;3.10;99.90;;;;;;5058275;28;20035;-70
2024/01/12 02:37:03;;;;;;;4.18;2.03;;;3.00;99.90;;;;;;5058716;28;20036;-70
2024/01/12 02:39:28;;;;;;;3.78;2.03;;;3.10;99.90;;;;;;5058584;28;20102;-70
2024/01/12 02:41:57;;;;;;;2.78;2.30;;;3.10;99.90;;;;;;5057955;28;20088;-70
2024/01/12 02:44:26;;;;;;;4.47;2.33;;;3.00;99.90;;;;;;5058032;28;20017;-70
2024/01/12 02:46:51;;;;;;;3.17;1.77;;;3.10;99.90;;;;;;5057113;28;20114;-70
2024/01/12 02:49:17;;;;;;;6.03;2.20;;;3.10;99.90;;;;;;5058280;28;20032;-70
2024/01/12 02:51:43;;;;;;;4.10;2.33;;;3.00;99.90;;;;;;5057525;28;20024;-70
2024/01/12 02:54:08;;;;;;;3.13;1.80;;;3.00;99.90;;;;;;5057324;28;20083;-70
2024/01/12 02:56:35;;;;;;;3.85;1.90;;;3.00;99.90;;;;;;5056816;28;20071;-70
2024/01/12 02:59:00;;;;;;;6.13;2.45;;;3.00;99.90;;;;;;5057848;28;20056;-70
2024/01/12 03:01:27;;;;;;;6.18;2.75;;;3.10;99.90;;;;;;5057702;28;20025;-70
2024/01/12 03:03:53;;;;;;;6.05;2.42;;;3.10;99.90;;;;;;5056748;28;20021;-70
2024/01/12 03:06:18;;;;;;;4.10;2.20;;;3.10;99.90;;;;;;5056945;28;20048;-70
2024/01/12 03:08:44;;;;;;;4.90;2.40;;;3.10;99.90;;;;;;5057948;28;20151;-70
2024/01/12 03:11:09;;;;;;;3.67;1.95;;;3.10;99.90;;;;;;5056595;28;20036;-70
2024/01/12 03:13:35;;;;;;;3.88;1.77;;;3.10;99.90;;;;;;5057655;28;20025;-70
2024/01/12 03:16:00;;;;;;;4.78;2.10;;;3.10;99.90;;;;;;5057699;28;20028;-70
2024/01/12 03:18:27;;;;;;;2.88;2.10;;;3.10;99.90;;;;;;5057363;28;20027;-70
2024/01/12 03:20:53;;;;;;;4.03;2.13;;;3.20;99.90;;;;;;5057541;28;20071;-70
2024/01/12 03:23:18;;;;;;;4.38;2.53;;;3.10;99.90;;;;;;5056688;28;20021;-70
2024/01/12 03:25:44;;;;;;;4.55;2.40;;;3.10;99.90;;;;;;5056354;28;20025;-70
2024/01/12 03:28:09;;;;;;;3.22;1.85;;;3.10;99.90;;;;;;5056250;28;20079;-70
2024/01/12 03:30:35;;;;;;;3.35;2.08;;;3.10;99.90;;;;;;5056371;28;20039;-70
2024/01/12 03:33:00;;;;;;;6.13;2.47;;;3.10;99.90;;;;;;5057106;28;20029;-70
2024/01/12 03:35:26;;;;;;;3.20;1.95;;;3.10;99.90;;;;;;5055737;28;20057;-70
2024/01/12 03:37:52;;;;;;;3.50;1.95;;;3.10;99.90;;;;;;5057071;28;20039;-70
2024/01/12 03:40:17;;;;;;;5.82;2.80;;;3.10;99.90;;;;;;5056450;28;20056;-70
2024/01/12 03:42:43;;;;;;;3.78;2.88;;;3.00;99.90;;;;;;5056197;28;20025;-70
2024/01/12 03:45:09;;;;;;;5.72;2.38;;;3.00;99.90;;;;;;5056976;28;20029;-70
2024/01/12 03:47:34;;;;;;;4.35;2.63;;;3.10;99.90;;;;;;5057031;28;20021;-70
2024/01/12 03:50:00;;;;;;;4.63;2.33;;;3.10;99.90;;;;;;5055854;28;20027;-70
2024/01/12 03:52:25;;;;;;;4.45;2.30;;;2.90;99.90;;;;;;5057421;28;20029;-70
2024/01/12 03:54:51;;;;;;;4.88;2.33;;;3.10;99.90;;;;;;5056002;28;20032;-69
2024/01/12 03:57:16;;;;;;;4.57;2.50;;;3.00;99.90;;;;;;5056379;28;20032;-70
2024/01/12 03:59:42;;;;;;;3.75;2.25;;;3.10;99.90;;;;;;5055933;28;20055;-70
2024/01/12 04:02:07;;;;;;;4.70;2.60;;;3.20;99.90;;;;;;5057137;28;20017;-70
2024/01/12 04:04:33;;;;;;;4.50;2.25;;;3.10;99.90;;;;;;5057089;28;20021;-70
2024/01/12 04:06:59;;;;;;;4.72;2.83;;;3.20;99.90;;;;;;5056262;28;20032;-70
2024/01/12 04:09:25;;;;;;;4.35;2.35;;;3.20;99.90;;;;;;5056654;28;20025;-70
2024/01/12 04:11:50;;;;;;;4.38;2.40;;;3.10;99.90;;;;;;5056648;28;20064;-70
2024/01/12 04:14:15;;;;;;;5.28;2.60;;;3.10;99.90;;;;;;5056731;28;20033;-70
2024/01/12 04:16:41;;;;;;;4.97;2.60;;;3.00;99.90;;;;;;5056648;28;20036;-69
2024/01/12 04:19:07;;;;;;;6.18;2.45;;;2.90;99.90;;;;;;5057115;28;20041;-70
2024/01/12 04:21:32;;;;;;;5.45;2.33;;;3.00;99.90;;;;;;5056484;28;20033;-70
2024/01/12 04:23:59;;;;;;;5.68;2.38;;;3.10;99.90;;;;;;5056629;28;20021;-70
2024/01/12 04:26:25;;;;;;;4.38;2.63;;;3.20;99.90;;;;;;5056636;28;20028;-70
2024/01/12 04:28:50;;;;;;;5.68;2.67;;;3.20;99.90;;;;;;5056524;28;20037;-70
2024/01/12 04:31:16;;;;;;;6.80;3.00;;;3.10;99.90;;;;;;5056818;28;20024;-70
2024/01/12 04:33:42;;;;;;;3.50;2.25;;;3.00;99.90;;;;;;5056584;28;20051;-70
2024/01/12 04:36:07;;;;;;;6.50;2.80;;;3.00;99.90;;;;;;5055660;28;20021;-70
2024/01/12 04:38:33;;;;;;;5.28;2.72;;;3.00;99.90;;;;;;5055515;28;20025;-70
2024/01/12 04:40:58;;;;;;;6.68;2.90;;;3.10;99.90;;;;;;5056523;28;20025;-70
2024/01/12 04:43:24;;;;;;;5.95;2.67;;;3.10;99.90;;;;;;5055648;28;20036;-70
2024/01/12 04:45:49;;;;;;;7.05;3.10;;;3.00;99.90;;;;;;5058793;28;20040;-70
2024/01/12 04:48:15;;;;;;;4.90;2.83;;;3.10;99.90;;;;;;5059302;28;20029;-70
2024/01/12 04:50:40;;;;;;;5.50;2.65;;;3.10;99.90;;;;;;5060248;28;20029;-70
2024/01/12 04:53:06;;;;;;;4.13;2.42;;;3.10;99.90;;;;;;5060128;28;20033;-70
2024/01/12 04:55:31;;;;;;;3.85;2.30;;;2.90;99.90;;;;;;5059200;28;20136;-70
2024/01/12 04:57:57;;;;;;;3.22;2.45;;;3.00;99.90;;;;;;5059055;28;20032;-70
2024/01/12 05:00:22;;;;;;;4.20;2.25;;;3.00;99.90;;;;;;5060155;28;20076;-70
2024/01/12 05:02:48;;;;;;;5.43;2.33;;;3.00;99.90;;;;;;5059131;28;20028;-70
2024/01/12 05:05:14;;;;;;;4.28;2.50;;;3.00;99.90;;;;;;5058884;28;20021;-70
2024/01/12 05:07:40;;;;;;;4.63;2.88;;;3.00;99.90;;;;;;5059964;28;20021;-70
2024/01/12 05:10:06;;;;;;;4.05;2.20;;;3.00;99.90;;;;;;5059773;28;20051;-70
2024/01/12 05:12:32;;;;;;;4.13;2.05;;;3.00;99.90;;;;;;5059800;28;20047;-70
2024/01/12 05:14:58;;;;;;;7.53;2.78;;;3.00;99.90;;;;;;5060103;28;20080;-70
2024/01/12 05:17:24;;;;;;;4.82;2.70;;;3.10;99.90;;;;;;5059989;28;20052;-70
2024/01/12 05:19:49;;;;;;;4.90;2.67;;;3.10;99.90;;;;;;5059677;28;20017;-70
2024/01/12 05:22:15;;;;;;;4.20;2.55;;;3.10;99.90;;;;;;5058792;28;20033;-70
2024/01/12 05:24:41;;;;;;;4.70;2.17;;;3.10;99.90;;;;;;5059606;28;20032;-70
2024/01/12 05:27:07;;;;;;;4.47;2.45;;;3.10;99.90;;;;;;5058626;28;20036;-69
2024/01/12 05:29:33;;;;;;;5.60;2.75;;;3.20;99.90;;;;;;5058776;28;20029;-69
2024/01/12 05:32:00;;;;;;;4.15;2.67;;;3.10;99.90;;;;;;5059383;28;20052;-70
2024/01/12 05:34:25;;;;;;;5.68;3.20;;;3.10;99.90;;;;;;5059438;28;20052;-69
2024/01/12 05:36:50;;;;;;;4.70;2.85;;;3.00;99.90;;;;;;5059342;28;20122;-70
2024/01/12 05:39:16;;;;;;;3.85;2.63;;;3.00;99.90;;;;;;5058651;28;20089;-70
2024/01/12 05:41:41;;;;;;;6.93;2.83;;;2.90;99.90;;;;;;5058347;28;20036;-70
2024/01/12 05:44:07;;;;;;;5.80;3.35;;;2.80;99.90;;;;;;5059226;28;20112;-70
2024/01/12 05:46:33;;;;;;;4.13;2.20;;;2.80;99.90;;;;;;5058947;28;20032;-70
2024/01/12 05:49:00;;;;;;;5.95;3.15;;;2.90;99.90;;;;;;5058214;28;20017;-70
2024/01/12 05:51:26;;;;;;;4.22;2.67;;;3.00;99.90;;;;;;5059313;28;20032;-70
2024/01/12 05:53:52;;;;;;;3.03;2.38;;;3.00;99.90;;;;;;5058156;28;20119;-70
2024/01/12 05:56:17;;;;;;;4.40;2.85;;;3.00;99.90;;;;;;5057417;28;20116;-70
2024/01/12 05:58:43;;;;;;;3.92;2.70;;;3.00;99.90;;;;;;5058920;28;20063;-70
2024/01/12 06:01:08;;;;;;;4.10;2.17;;;3.00;99.90;;;;;;5058957;28;20021;-70
2024/01/12 06:03:34;;;;;;;3.58;2.17;;;2.90;99.90;;;;;;5058753;28;20021;-70
2024/01/12 06:06:01;;;;;;;5.20;3.10;;;2.70;99.90;;;;;;5059118;28;20017;-70
2024/01/12 06:08:26;;;;;;;4.05;2.53;;;2.70;99.90;;;;;;5058056;28;20025;-70
2024/01/12 06:10:52;;;;;;;5.60;2.97;;;2.80;99.90;;;;;;5057815;28;20048;-70
2024/01/12 06:13:17;;;;;;;5.38;3.15;;;2.90;99.90;;;;;;5058702;28;20029;-70
2024/01/12 06:15:43;;;;;;;6.53;3.28;;;2.90;99.90;;;;;;5058962;28;20025;-70
2024/01/12 06:18:08;;;;;;;3.08;2.38;;;2.90;99.90;;;;;;5058929;28;20017;-70
2024/01/12 06:20:34;;;;;;;3.63;2.60;;;2.80;99.90;;;;;;5058361;28;20024;-70
2024/01/12 06:23:00;;;;;;;3.97;2.30;;;2.80;99.90;;;;;;5057499;28;20021;-70
2024/01/12 06:25:26;;;;;;;5.13;2.72;;;2.70;99.90;;;;;;5057751;28;20017;-70
2024/01/12 06:27:51;;;;;;;4.50;2.65;;;2.80;99.90;;;;;;5058355;28;20082;-70
2024/01/12 06:30:17;;;;;;;5.05;3.08;;;2.80;99.90;;;;;;5058235;28;20025;-70
2024/01/12 06:32:43;;;;;;;4.47;2.90;;;2.80;99.90;;;;;;5057641;28;20025;-70
2024/01/12 06:35:10;;;;;;;5.88;3.03;;;2.90;99.90;;;;;;5057422;28;20025;-70
2024/01/12 06:37:35;;;;;;;4.78;2.92;;;2.80;99.90;;;;;;5058234;28;20045;-70
2024/01/12 06:40:01;;;;;;;5.07;2.45;;;2.90;99.90;;;;;;5058193;28;20021;-70
2024/01/12 06:42:28;;;;;;;4.75;2.40;;;2.90;99.90;;;;;;5058003;28;20032;-70
2024/01/12 06:44:54;;;;;;;4.13;2.60;;;2.90;99.90;;;;;;5058400;28;20021;-70
2024/01/12 06:47:19;;;;;;;4.97;2.42;;;2.90;99.90;;;;;;5058024;28;20021;-70
2024/01/12 06:49:45;;;;;;;3.97;2.65;;;2.90;99.90;;;;;;5057329;28;20037;-69
2024/01/12 06:52:11;;;;;;;5.28;3.17;;;2.90;99.90;;;;;;5057463;28;20031;-70
2024/01/12 06:54:37;;;;;;;5.35;3.00;;;2.80;99.90;;;;;;5057857;28;20039;-70
2024/01/12 06:57:03;;;;;;;4.53;2.53;;;2.70;99.90;;;;;;5057887;28;20037;-70
2024/01/12 06:59:28;;;;;;;4.63;2.65;;;2.80;99.90;;;;;;5057722;28;20017;-70
2024/01/12 07:01:54;;;;;;;5.20;2.63;;;2.70;99.90;;;;;;5056870;28;20029;-70
2024/01/12 07:04:19;;;;;;;4.35;2.70;;;2.70;99.90;;;;;;5057874;28;20021;-70
2024/01/12 07:06:45;;;;;;;4.13;2.75;;;2.60;99.90;;;;;;5057692;28;20021;-70
2024/01/12 07:09:13;;;;;;;4.68;2.40;;;2.60;99.90;;;;;;5057682;28;20025;-70
2024/01/12 07:11:44;;;;;;;3.63;2.55;;;2.60;99.90;;;;;;5056925;28;20028;-70
2024/01/12 07:14:10;;;;;;;5.18;2.92;;;2.70;99.90;;;;;;5057514;28;20036;-70
2024/01/12 07:16:37;;;;;;;6.75;2.92;;;2.70;99.90;;;;;;5056526;28;20029;-70
2024/01/12 07:19:03;;;;;;;4.50;2.58;;;2.80;99.90;;;;;;5056844;28;20030;-69
2024/01/12 07:21:28;;;;;;;6.22;3.17;;;2.80;99.90;;;;;;5057365;28;20028;-70
2024/01/12 07:23:54;;;;;;;5.55;3.25;;;2.60;99.90;;;;;;5056366;28;20025;-70
2024/01/12 07:26:19;;;;;;;6.40;3.50;;;2.60;99.90;;;;;;5057463;28;20031;-70
2024/01/12 07:28:46;;;;;;;8.52;3.63;;;2.70;99.90;;;;;;5056313;28;20135;-70
2024/01/12 07:31:11;;;;;;;5.55;2.88;;;2.60;99.90;;;;;;5057487;28;20025;-70
2024/01/12 07:33:37;;;;;;;6.43;3.33;;;2.70;99.90;;;;;;5057176;28;20056;-70
2024/01/12 07:36:03;;;;;;;6.63;3.65;;;2.70;99.90;;;;;;5057302;28;20052;-70
2024/01/12 07:38:29;;;;;;;6.30;3.35;;;2.80;99.90;;;;;;5056224;28;20052;-70
2024/01/12 07:40:55;;;;;;;9.38;3.72;;;2.80;99.90;;;;;;5057190;28;20093;-70
2024/01/12 07:43:20;;;;;;;17.70;3.75;;;2.80;99.90;;;;;;5056344;28;20021;-70
2024/01/12 07:45:47;;;;;;;10.35;4.32;;;2.80;99.90;;;;;;5056980;28;20029;-70
2024/01/12 07:48:12;;;;;;;10.75;3.78;;;2.80;99.90;;;;;;5057410;28;20032;-70
2024/01/12 07:50:38;;;;;;;10.73;4.20;;;2.70;99.90;;;;;;5056901;28;20029;-70
2024/01/12 07:53:04;;;;;;;14.05;4.80;;;2.60;99.90;;;;;;5056135;28;20025;-70
2024/01/12 07:55:29;;;;;;;10.20;3.88;;;2.70;99.90;;;;;;5056848;28;20032;-70
2024/01/12 07:57:55;;;;;;;9.32;3.67;;;2.70;99.90;;;;;;5055804;28;20108;-69
2024/01/12 08:00:21;;;;;;;7.43;3.35;;;2.70;99.90;;;;;;5057009;28;20104;-70
2024/01/12 08:02:47;;;;;;;6.72;3.55;;;2.70;99.90;;;;;;5056811;28;20048;-70
2024/01/12 08:05:12;;;;;;;7.00;3.88;;;2.70;99.90;;;;;;5056726;28;20033;-69
2024/01/12 08:07:38;;;;;;;7.60;4.00;;;2.80;99.90;;;;;;5057054;28;20025;-70
2024/01/12 08:10:04;;;;;;;7.68;3.97;;;2.80;99.90;;;;;;5055838;28;20021;-70
2024/01/12 08:12:30;;;;;;;5.95;3.13;;;2.80;99.90;;;;;;5056584;28;20116;-70
2024/01/12 08:14:56;;;;;;;5.80;3.10;;;2.80;99.90;;;;;;5056023;28;20056;-70
2024/01/12 08:17:21;;;;;;;8.57;4.07;;;2.70;99.90;;;;;;5056578;28;20029;-70
2024/01/12 08:19:49;;;;;;;7.20;3.72;;;2.60;99.90;;;;;;5056148;28;20025;-70
2024/01/12 08:22:15;;;;;;;6.82;3.95;;;2.60;99.90;;;;;;5061237;28;20028;-70
2024/01/12 08:24:40;;;;;;;11.82;3.63;;;2.50;99.90;;;;;;5059977;28;20017;-70
2024/01/12 08:27:06;;;;;;;11.20;3.75;;;2.50;99.90;;;;;;5060901;28;20025;-69
2024/01/12 08:29:31;;;;;;;5.47;3.20;;;2.60;99.90;;;;;;5059901;28;20029;-70
2024/01/12 08:31:58;;;;;;;9.80;3.97;;;2.70;99.90;;;;;;5059539;28;20040;-70
2024/01/12 08:34:27;;;;;;;9.32;4.07;;;2.60;99.90;;;;;;5060596;28;20043;-70
2024/01/12 08:36:53;;;;;;;8.48;3.22;;;2.60;99.90;;;;;;5060361;28;20108;-70
2024/01/12 08:39:18;;;;;;;8.88;4.55;;;2.70;99.90;;;;;;5060373;28;20048;-70
2024/01/12 08:41:44;;;;;;;7.82;3.53;;;2.60;99.90;;;;;;5060429;28;20037;-70
2024/01/12 08:44:11;;;;;;;8.45;4.10;;;2.60;99.90;;;;;;5060254;28;20024;-70
2024/01/12 08:46:37;;;;;;;5.40;3.45;;;2.70;99.90;;;;;;5060296;28;20051;-70
2024/01/12 08:49:02;;;;;;;5.55;3.22;;;2.70;99.90;;;;;;5059394;28;20025;-70
2024/01/12 08:51:28;;;;;;;8.05;3.88;;;2.70;99.90;;;;;;5060102;28;20025;-70
2024/01/12 08:53:53;;;;;;;6.90;3.53;;;2.70;99.90;;;;;;5060100;28;20025;-70
2024/01/12 08:56:19;;;;;;;9.18;3.65;;;2.60;99.90;;;;;;5058879;28;20024;-70
2024/01/12 08:58:44;;;;;;;12.35;3.88;;;2.50;99.90;;;;;;5059468;28;20017;-70
2024/01/12 09:01:10;;;;;;;8.95;4.15;;;2.50;99.90;;;;;;5059445;28;20036;-69
2024/01/12 09:03:35;;;;;;;9.18;3.60;;;2.60;99.90;;;;;;5060289;28;20033;-70
2024/01/12 09:06:01;;;;;;;9.80;4.72;;;2.70;99.90;;;;;;5059998;28;20100;-70
2024/01/12 09:08:27;;;;;;;11.38;3.95;;;2.70;99.90;;;;;;5058776;28;20021;-69
2024/01/12 09:10:52;;;;;;;8.30;4.07;;;2.80;99.90;;;;;;5059894;28;20028;-69
2024/01/12 09:13:18;;;;;;;6.90;3.33;;;2.80;99.90;;;;;;5058886;28;20029;-69
2024/01/12 09:15:43;;;;;;;9.77;4.10;;;2.70;99.90;;;;;;5058697;28;20067;-69
2024/01/12 09:18:09;;;;;;;12.55;4.32;;;2.70;99.90;;;;;;5060108;28;20067;-70
2024/01/12 09:20:35;;;;;;;8.18;4.18;;;2.80;99.90;;;;;;5059561;28;20020;-70
2024/01/12 09:23:01;;;;;;;7.72;3.80;;;2.70;99.90;;;;;;5060195;28;20079;-69
2024/01/12 09:25:26;;;;;;;10.80;3.85;;;2.70;99.90;;;;;;5059158;28;20074;-69
2024/01/12 09:27:52;;;;;;;8.75;3.67;;;2.60;99.90;;;;;;5059582;28;20024;-69
2024/01/12 09:30:19;;;;;;;9.02;4.57;;;2.40;99.90;;;;;;5059794;28;20013;-69
2024/01/12 09:32:44;;;;;;;7.93;4.45;;;2.50;99.90;;;;;;5058484;28;20028;-68
2024/01/12 09:35:10;;;;;;;9.45;4.30;;;2.50;99.90;;;;;;5059735;28;20013;-69
2024/01/12 09:37:36;;;;;;;7.43;3.85;;;2.40;99.90;;;;;;5058600;28;20123;-69
2024/01/12 09:40:02;;;;;;;8.52;4.00;;;2.30;99.90;;;;;;5059382;28;20027;-69
2024/01/12 09:42:32;;;;;;;7.40;4.00;;;2.20;99.90;;;;;;5058767;28;20115;-69
2024/01/12 09:44:59;;;;;;;7.70;4.10;;;2.30;99.90;;;;;;5058363;28;20079;-69
2024/01/12 09:47:26;;;;;;;7.88;4.22;;;2.40;99.90;;;;;;5058539;28;20025;-69
2024/01/12 09:49:53;;;;;;;8.98;4.43;;;2.50;99.90;;;;;;5058280;28;20056;-69
2024/01/12 09:52:19;;;;;;;10.27;4.70;;;2.50;99.90;;;;;;5058389;28;20025;-69
2024/01/12 09:54:47;;;;;;;9.27;4.50;;;2.40;99.90;;;;;;5058195;28;20127;-69
2024/01/12 09:57:13;;;;;;;10.65;4.47;;;2.50;99.90;;;;;;5058363;28;20039;-69
2024/01/12 09:59:40;;;;;;;10.98;4.53;;;2.50;99.90;;;;;;5058954;28;20025;-70
2024/01/12 10:02:12;;;;;;;11.23;4.97;;;2.60;99.90;;;;;;5058799;28;20065;-69
2024/01/12 10:04:38;;;;;;;9.63;4.55;;;2.60;99.90;;;;;;5058794;28;20017;-70
2024/01/12 10:07:03;;;;;;;9.68;4.55;;;2.50;99.90;;;;;;5058826;28;20108;-69
2024/01/12 10:09:29;;;;;;;8.82;4.30;;;2.50;99.90;;;;;;5058831;28;20017;-69
2024/01/12 10:11:55;;;;;;;10.02;4.30;;;2.60;99.90;;;;;;5057876;28;20028;-70
2024/01/12 10:14:22;;;;;;;11.13;4.95;;;2.70;99.90;;;;;;5057904;28;20074;-69
2024/01/12 10:17:00;;;;;;;9.07;3.83;;;2.60;99.90;;;;;;5058626;28;20082;-70
2024/01/12 10:19:26;;;;;;;8.68;4.00;;;2.70;99.90;;;;;;5058486;28;20096;-70
2024/01/12 10:21:52;;;;;;;9.57;4.28;;;2.80;99.90;;;;;;5058639;28;20025;-70
2024/01/12 10:24:19;;;;;;;9.30;4.25;;;2.80;99.90;;;;;;5057552;28;20017;-70
2024/01/12 10:26:49;;;;;;;8.38;3.80;;;2.80;99.90;;;;;;5057874;28;20123;-70
2024/01/12 10:29:15;;;;;;;9.63;4.28;;;2.70;99.90;;;;;;5058282;28;20032;-69
2024/01/12 10:31:43;;;;;;;8.35;4.38;;;2.30;99.90;;;;;;5058355;28;20021;-70
2024/01/12 10:34:13;;;;;;;8.10;3.30;;;2.30;99.90;;;;;;5057840;28;20029;-70
2024/01/12 10:36:39;;;;;;;9.25;4.18;;;2.40;99.90;;;;;;5058268;28;20039;-70
2024/01/12 10:39:08;;;;;;;8.63;4.47;;;2.50;99.90;;;;;;5058639;28;20029;-70
2024/01/12 10:41:34;;;;;;;7.72;3.92;;;2.50;99.90;;;;;;5058301;28;20029;-70
2024/01/12 10:44:04;;;;;;;10.38;4.10;;;2.50;99.90;;;;;;5056944;28;20021;-70
2024/01/12 10:46:47;;;;;;;10.57;4.40;;;2.70;99.90;;;;;;5057133;28;20067;-70
2024/01/12 10:49:18;;;;;;;7.00;3.55;;;2.90;99.90;;;;;;5057119;28;20055;-70
2024/01/12 10:52:13;;;;;;;8.25;3.72;;;2.80;99.90;;;;;;5058046;28;20025;-70
2024/01/12 10:55:12;;;;;;;7.53;3.65;;;2.80;99.90;;;;;;5057137;28;20090;-70
2024/01/12 10:57:37;;;;;;;7.60;3.83;;;3.10;99.90;;;;;;5056497;28;20095;-70
2024/01/12 11:00:06;;;;;;;9.10;3.85;;;3.00;99.90;;;;;;5057886;28;20021;-70
2024/01/12 11:02:34;;;;;;;7.32;3.65;;;2.90;99.90;;;;;;5057812;28;20025;-69
2024/01/12 11:05:00;;;;;;;8.00;3.53;;;2.80;99.90;;;;;;5056981;28;20017;-69
2024/01/12 11:07:27;;;;;;;6.70;2.70;;;2.70;99.90;;;;;;5057275;28;20071;-70
2024/01/12 11:09:53;;;;;;;10.05;3.55;;;2.60;99.90;;;;;;5056721;28;20033;-70
2024/01/12 11:12:35;;;;;;;10.07;3.45;;;2.60;99.90;;;;;;5057696;28;20036;-70
2024/01/12 11:15:01;;;;;;;;;;;2.50;99.90;;;;;;5058187;28;20028;-70
2024/01/12 11:17:29;;;;;;;6.75;2.90;;;2.50;99.90;;;;;;5056556;28;19909;-70
2024/01/12 11:20:10;;;;;;;8.38;3.42;;;2.40;99.90;;;;;;5056446;28;20090;-70
2024/01/12 11:22:41;;;;;;;9.00;3.10;;;2.20;99.90;;;;;;5057790;28;20094;-70
2024/01/12 11:25:08;;;;;;;7.78;3.83;;;2.40;99.90;;;;;;5057522;28;20021;-70
2024/01/12 11:27:37;;;;;;;8.55;3.90;;;2.20;99.90;;;;;;5057121;28;20040;-70
2024/01/12 11:30:04;;;;;;;8.15;3.20;;;2.40;99.90;;;;;;5056247;28;20025;-70
2024/01/12 11:32:30;;;;;;;15.02;4.03;;;2.60;99.90;;;;;;5057311;28;20036;-70
2024/01/12 11:35:15;;;;;;;6.90;3.72;;;2.60;99.90;;;;;;5056286;28;20025;-70
2024/01/12 11:37:46;;;;;;;8.05;3.47;;;3.00;99.90;;;;;;5057385;28;20032;-70
2024/01/12 11:40:13;;;;;;;9.00;4.20;;;3.00;99.90;;;;;;5057207;28;20021;-70
2024/01/12 11:42:43;;;;;;;15.50;6.45;;;3.10;99.90;;;;;;5057119;28;20033;-69
2024/01/12 11:45:13;;;;;;;7.13;3.38;;;3.10;99.90;;;;;;5057222;28;20076;-70
2024/01/12 11:47:43;;;;;;;8.43;4.35;;;3.00;99.90;;;;;;5057140;28;20017;-70
2024/01/12 11:50:14;;;;;;;8.88;3.92;;;2.90;99.90;;;;;;5056517;28;20083;-70
2024/01/12 11:52:40;;;;;;;6.85;3.33;;;2.80;99.90;;;;;;5056111;28;20025;-70
2024/01/12 11:55:07;;;;;;;6.90;3.42;;;2.80;99.90;;;;;;5056245;28;20025;-70
2024/01/12 11:57:34;;;;;;;6.40;3.55;;;2.90;99.90;;;;;;5057082;28;20033;-70
2024/01/12 12:00:00;;;;;;;9.98;4.00;;;2.80;99.90;;;;;;5056987;28;20017;-70
2024/01/12 12:02:26;;;;;;;6.97;2.97;;;2.70;99.90;;;;;;5056992;28;20028;-70
2024/01/12 12:04:51;;;;;;;9.02;3.42;;;2.60;99.90;;;;;;5056848;28;20021;-70
2024/01/12 12:07:25;;;;;;;6.40;3.35;;;2.60;99.90;;;;;;5056008;28;20028;-70
2024/01/12 12:09:51;;;;;;;5.93;2.67;;;2.60;99.90;;;;;;5056829;28;20058;-70
2024/01/12 12:12:17;;;;;;;4.63;2.90;;;2.60;99.90;;;;;;5056875;28;20066;-70
2024/01/12 12:15:18;;;;;;;6.55;2.55;;;2.60;99.90;;;;;;5055782;28;20170;-70
2024/01/12 12:17:47;;;;;;;7.82;3.08;;;2.40;99.90;;;;;;5035305;28;20038;-70
2024/01/12 12:20:13;;;;;;;7.38;3.50;;;2.40;99.90;;;;;;5035232;28;20042;-69
2024/01/12 12:22:43;;;;;;;7.13;2.97;;;2.50;99.90;;;;;;5035309;28;20033;-70
2024/01/12 12:25:09;;;;;;;7.05;2.50;;;2.50;99.90;;;;;;5035209;28;20045;-70
2024/01/12 12:27:39;;;;;;;4.95;2.20;;;2.60;99.90;;;;;;5035124;28;20037;-70
2024/01/12 12:30:09;;;;;;;11.65;4.13;;;2.60;99.90;;;;;;5035015;28;20084;-69
2024/01/12 12:32:34;;;;;;;20.02;8.90;;;2.50;99.90;;;;;;5035077;28;20033;-69
2024/01/12 12:35:14;;;;;;;9.50;3.10;;;2.50;99.90;;;;;;5035173;28;20026;-70
2024/01/12 12:37:40;;;;;;;11.60;4.65;;;2.50;99.90;;;;;;5018755;28;20033;-70
2024/01/12 12:40:09;;;;;;;5.30;2.72;;;2.50;99.90;;;;;;5018745;28;20018;-70
2024/01/12 12:42:35;;;;;;;7.45;4.10;;;2.40;99.90;;;;;;5035485;28;20037;-70
2024/01/12 12:45:01;;;;;;;3.47;1.77;;;2.40;99.90;;;;;;5035219;28;20081;-70
2024/01/12 12:47:26;;;;;;;5.55;2.25;;;2.40;99.90;;;;;;5035008;28;20053;-69
2024/01/12 12:49:52;;;;;;;9.85;4.15;;;2.30;99.90;;;;;;5018310;28;20036;-70
2024/01/12 12:52:18;;;;;;;5.28;2.65;;;2.40;99.90;;;;;;5051349;28;20090;-70